Picton, Canada
Current Conditions -  °F | °C
As of 9:00 AM on Wednesday 28 Jan 2015 (Local Time) from CYTR Reporting Station
Clear Clear  
Wind Chill: -3°   Ceiling: Unl
Heat Index: 10°   Visibility: 15mi
Dew Point: -8°   Wind: 10mph
Humidity: 44%   Direction: 350°N
Pressure: 30.26"   Gusts: NA
Location:  44.01°N, 77.14°W
Report Text: CYTR 281400Z 35009KT 15SM SKC M12/M22 A3026 RMK SLP253
Loading
Personal Weather Stations






























Interactive Weather Map New forecast layout! Learn more

10-Day Weather Forecast

Advertisements
Track Severe Weather on mobile